Time;durP1;ratioP1;P1;durP2;ratioP2;P2;SDS_P1;SDS_P2;PMS_P1;PMS_P2;Temp;Humidity;BMP_temperature;BMP_pressure;BME280_temperature;BME280_humidity;BME280_pressure;Samples;Min_cycle;Max_cycle;Signal;HPM_P1;HPM_P2
2021/08/18 00:01:18;;;;;;;11.73;5.83;;;;;;;23.13;67.00;100809.33;1784433;80;25750;-61
2021/08/18 00:03:45;;;;;;;11.12;7.30;;;;;;;23.15;66.89;100809.95;1772497;80;27471;-61
2021/08/18 00:06:13;;;;;;;11.20;6.53;;;;;;;23.19;66.58;100817.25;1785390;79;26541;-61
2021/08/18 00:08:45;;;;;;;9.35;6.60;;;;;;;23.07;66.22;100829.41;1786526;80;25885;-61
2021/08/18 00:11:12;;;;;;;11.40;6.78;;;;;;;22.97;66.45;100821.66;1758347;81;26175;-61
2021/08/18 00:13:39;;;;;;;21.85;6.97;;;;;;;22.95;66.65;100827.89;1791423;80;26267;-62
2021/08/18 00:16:06;;;;;;;9.40;6.30;;;;;;;22.90;66.65;100833.20;1783309;80;28204;-62
2021/08/18 00:18:33;;;;;;;12.43;6.20;;;;;;;22.73;66.94;100836.94;1823665;78;25854;-62
2021/08/18 00:21:00;;;;;;;10.00;6.28;;;;;;;22.55;67.49;100846.68;1823766;78;25764;-61
2021/08/18 00:23:27;;;;;;;11.43;6.45;;;;;;;22.50;68.06;100845.12;1823769;78;26739;-61
2021/08/18 00:25:55;;;;;;;12.00;7.33;;;;;;;22.38;68.43;100846.24;1791468;79;25814;-61
2021/08/18 00:28:22;;;;;;;13.68;6.65;;;;;;;22.15;69.63;100843.44;1788234;80;27449;-61
2021/08/18 00:30:49;;;;;;;9.23;6.33;;;;;;;22.05;69.76;100831.52;1776574;79;26387;-61
2021/08/18 00:33:16;;;;;;;9.50;5.92;;;;;;;22.05;69.40;100834.80;1791394;80;25752;-61
2021/08/18 00:35:43;;;;;;;10.32;5.65;;;;;;;22.12;69.60;100853.44;1790812;80;25818;-61
2021/08/18 00:38:10;;;;;;;8.03;5.58;;;;;;;22.01;69.73;100862.27;1758315;81;25919;-60
2021/08/18 00:40:37;;;;;;;9.25;5.62;;;;;;;21.93;70.19;100862.48;1791186;80;28134;-61
2021/08/18 00:43:04;;;;;;;9.50;4.40;;;;;;;21.92;70.01;100860.83;1758272;81;25708;-61
2021/08/18 00:45:31;;;;;;;11.05;5.45;;;;;;;21.92;70.46;100857.55;1814932;78;25817;-61
2021/08/18 00:47:58;;;;;;;9.45;5.33;;;;;;;21.95;70.17;100859.88;1823862;78;25794;-61
2021/08/18 00:50:28;;;;;;;12.18;5.50;;;;;;;21.91;70.14;100859.13;1823637;78;25856;-61
2021/08/18 00:52:55;;;;;;;12.25;5.30;;;;;;;21.96;70.72;100860.70;1823713;78;27463;-61
2021/08/18 00:55:26;;;;;;;10.80;5.60;;;;;;;21.98;70.02;100857.23;1824085;78;25730;-62
2021/08/18 00:57:54;;;;;;;7.53;5.10;;;;;;;21.98;69.88;100843.55;1823690;78;25757;-61
2021/08/18 01:00:24;;;;;;;12.45;5.47;;;;;;;21.99;69.82;100850.17;1823205;78;26536;-61
2021/08/18 01:02:51;;;;;;;8.78;4.60;;;;;;;22.04;69.90;100853.14;1823945;78;25745;-61
2021/08/18 01:05:24;;;;;;;9.50;5.00;;;;;;;22.11;69.60;100860.50;1824227;78;27442;-61
2021/08/18 01:07:53;;;;;;;9.15;5.30;;;;;;;22.06;69.43;100867.98;1823711;78;25761;-61
2021/08/18 01:10:28;;;;;;;8.95;5.10;;;;;;;22.09;69.15;100865.34;1821656;78;25726;-61
2021/08/18 01:12:56;;;;;;;10.70;5.03;;;;;;;22.10;69.00;100873.34;1811635;78;25817;-62
2021/08/18 01:15:26;;;;;;;8.45;5.20;;;;;;;22.03;68.76;100879.35;1785176;80;25739;-61
2021/08/18 01:17:58;;;;;;;8.63;4.47;;;;;;;21.98;68.67;100879.98;1784949;79;27452;-61
2021/08/18 01:20:40;;;;;;;7.78;4.40;;;;;;;22.00;69.14;100879.79;1785208;80;25760;-60
2021/08/18 01:23:11;;;;;;;7.22;4.22;;;;;;;21.94;68.67;100882.83;1784378;80;25797;-61
2021/08/18 01:25:41;;;;;;;7.92;4.15;;;;;;;21.91;68.29;100886.52;1793202;79;25766;-61
2021/08/18 01:28:10;;;;;;;10.70;3.77;;;;;;;21.93;68.31;100889.87;1785246;80;25821;-61
2021/08/18 01:30:38;;;;;;;9.10;3.87;;;;;;;21.93;67.83;100893.98;1791974;80;28155;-63
2021/08/18 01:33:10;;;;;;;5.33;3.40;;;;;;;21.90;67.55;100895.25;1792792;80;25794;-62
2021/08/18 01:35:42;;;;;;;10.08;4.78;;;;;;;21.86;67.38;100895.36;1791665;80;25880;-61
2021/08/18 01:38:12;;;;;;;7.37;4.65;;;;;;;21.70;67.92;100904.80;1793172;79;26491;-61
2021/08/18 01:40:40;;;;;;;6.95;4.22;;;;;;;21.42;68.61;100904.36;1792864;80;25819;-62
2021/08/18 01:43:08;;;;;;;8.05;4.53;;;;;;;21.15;69.54;100905.63;1793242;79;28131;-62
2021/08/18 01:45:41;;;;;;;7.53;4.20;;;;;;;20.92;70.09;100913.62;1792768;80;25867;-61
2021/08/18 01:48:19;;;;;;;5.80;3.80;;;;;;;20.63;71.08;100932.41;1793492;79;25759;-62
2021/08/18 01:50:49;;;;;;;8.78;3.67;;;;;;;20.45;71.15;100935.64;1792746;80;25787;-61
2021/08/18 01:53:22;;;;;;;4.70;3.83;;;;;;;20.37;71.68;100933.05;1769986;79;25716;-61
2021/08/18 01:55:49;;;;;;;13.78;4.90;;;;;;;20.30;71.64;100931.13;1761771;81;27450;-61
2021/08/18 01:58:16;;;;;;;6.72;4.33;;;;;;;20.32;71.41;100941.31;1785527;79;25739;-61
2021/08/18 02:00:44;;;;;;;7.67;5.20;;;;;;;20.23;71.90;100942.48;1792895;80;25721;-61
2021/08/18 02:03:11;;;;;;;10.08;6.62;;;;;;;20.11;71.28;100937.23;1793192;79;26544;-61
2021/08/18 02:05:38;;;;;;;8.13;6.20;;;;;;;19.89;70.96;100944.05;1793087;79;25824;-61
2021/08/18 02:08:06;;;;;;;11.08;7.47;;;;;;;19.80;70.97;100945.17;1793033;80;27471;-61
2021/08/18 02:10:34;;;;;;;10.23;7.35;;;;;;;19.60;70.87;100952.61;1793014;80;25834;-61
2021/08/18 02:13:00;;;;;;;11.33;8.05;;;;;;;19.37;71.10;100972.70;1790337;80;25770;-62
2021/08/18 02:15:31;;;;;;;14.40;8.05;;;;;;;19.07;72.13;100975.95;1789560;80;25862;-60
2021/08/18 02:18:00;;;;;;;11.53;8.18;;;;;;;18.95;72.25;100962.45;1789576;80;25805;-61
2021/08/18 02:20:31;;;;;;;15.43;8.13;;;;;;;18.85;72.78;100954.52;1789418;80;28186;-61
2021/08/18 02:22:58;;;;;;;13.50;9.08;;;;;;;18.87;73.42;100954.66;1786866;80;25789;-60
2021/08/18 02:25:25;;;;;;;9.95;8.23;;;;;;;18.87;73.37;100958.75;1773926;80;26511;-61
2021/08/18 02:27:53;;;;;;;14.43;8.10;;;;;;;18.88;73.82;100953.62;1782020;80;25830;-61
2021/08/18 02:30:24;;;;;;;15.68;8.58;;;;;;;18.94;73.60;100950.70;1812540;78;25744;-60
2021/08/18 02:32:52;;;;;;;11.97;9.78;;;;;;;18.88;73.92;100956.36;1812046;79;27486;-60
2021/08/18 02:35:20;;;;;;;18.27;8.48;;;;;;;18.86;74.66;100948.05;1811633;79;26022;-60
2021/08/18 02:37:50;;;;;;;11.33;8.48;;;;;;;18.96;74.43;100943.16;1812640;78;25746;-60
2021/08/18 02:40:20;;;;;;;14.35;8.58;;;;;;;19.11;74.82;100942.34;1812229;78;25818;-60
2021/08/18 02:42:49;;;;;;;14.13;8.80;;;;;;;19.12;73.69;100941.31;1817387;78;25829;-61
2021/08/18 02:45:20;;;;;;;12.15;8.50;;;;;;;19.04;72.84;100943.10;1817593;78;27489;-60
2021/08/18 02:47:48;;;;;;;16.80;9.40;;;;;;;18.90;72.94;100943.39;1772645;78;25811;-62
2021/08/18 02:50:18;;;;;;;16.40;9.80;;;;;;;18.78;72.91;100947.06;1785118;80;25751;-61
2021/08/18 02:52:45;;;;;;;22.25;9.60;;;;;;;18.69;72.86;100955.53;1785356;80;26894;-61
2021/08/18 02:55:12;;;;;;;17.05;10.30;;;;;;;18.54;72.78;100960.44;1779224;79;25785;-61
2021/08/18 02:57:40;;;;;;;20.40;9.80;;;;;;;18.48;72.82;100966.61;1785390;80;27463;-61
2021/08/18 03:00:09;;;;;;;27.65;10.30;;;;;;;18.39;72.91;100978.59;1785380;80;25805;-61
2021/08/18 03:02:37;;;;;;;16.67;9.25;;;;;;;18.36;73.48;100981.70;1722421;81;25799;-61
2021/08/18 03:05:05;;;;;;;14.90;9.63;;;;;;;18.30;73.65;100984.64;1785439;80;25822;-61
2021/08/18 03:07:32;;;;;;;19.48;9.83;;;;;;;18.25;73.75;100987.91;1752907;81;25751;-61
2021/08/18 03:09:59;;;;;;;19.05;9.65;;;;;;;18.21;73.95;100994.73;1783400;78;28305;-61
2021/08/18 03:12:26;;;;;;;17.40;9.50;;;;;;;18.13;74.47;100987.49;1793863;79;25790;-61
2021/08/18 03:14:53;;;;;;;24.57;9.53;;;;;;;18.09;74.21;100988.87;1799165;79;25821;-60
2021/08/18 03:17:20;;;;;;;25.97;9.13;;;;;;;18.08;74.26;100991.25;1798870;79;26375;-61
2021/08/18 03:19:47;;;;;;;21.50;9.90;;;;;;;18.09;74.20;100983.42;1799087;79;25713;-60
2021/08/18 03:22:14;;;;;;;17.73;9.90;;;;;;;18.11;74.12;100979.15;1799052;79;27479;-61
2021/08/18 03:24:41;;;;;;;22.95;10.25;;;;;;;18.12;73.84;100973.55;1789835;79;25703;-60
2021/08/18 03:27:09;;;;;;;21.50;9.18;;;;;;;18.20;74.02;100972.61;1799006;79;25752;-60
2021/08/18 03:29:37;;;;;;;19.52;8.95;;;;;;;18.26;73.92;100974.63;1799146;79;26480;-60
2021/08/18 03:32:05;;;;;;;18.15;9.90;;;;;;;18.26;73.16;100975.13;1799391;79;25743;-61
2021/08/18 03:34:32;;;;;;;20.50;9.35;;;;;;;18.15;73.35;100966.35;1799281;79;27468;-61
2021/08/18 03:36:59;;;;;;;19.75;9.20;;;;;;;18.03;73.53;100967.82;1799606;79;26346;-61
2021/08/18 03:39:26;;;;;;;15.83;9.33;;;;;;;18.03;73.48;100968.31;1798294;79;25676;-61
2021/08/18 03:41:53;;;;;;;17.10;8.50;;;;;;;18.09;73.39;100961.64;1799126;79;26374;-60
2021/08/18 03:44:20;;;;;;;16.05;8.70;;;;;;;18.15;73.15;100958.19;1799301;79;25770;-61
2021/08/18 03:46:47;;;;;;;23.42;9.08;;;;;;;18.21;72.98;100959.86;1782400;79;27474;-61
2021/08/18 03:49:14;;;;;;;15.98;8.95;;;;;;;18.29;73.21;100944.29;1813688;79;25481;-60
2021/08/18 03:51:40;;;;;;;23.70;9.13;;;;;;;18.43;73.15;100937.20;1813576;78;25783;-60
2021/08/18 03:54:07;;;;;;;22.52;10.88;;;;;;;18.54;73.00;100931.84;1815333;78;25805;-60
2021/08/18 03:56:34;;;;;;;17.25;9.28;;;;;;;18.60;72.52;100926.17;1781847;79;25778;-60
2021/08/18 03:59:01;;;;;;;26.30;9.03;;;;;;;18.74;72.53;100920.38;1809390;78;27470;-60
2021/08/18 04:01:28;;;;;;;17.65;8.03;;;;;;;18.87;72.22;100918.39;1786520;80;25836;-60
2021/08/18 04:03:54;;;;;;;17.23;8.65;;;;;;;18.88;70.97;100926.88;1786552;80;25666;-60
2021/08/18 04:06:21;;;;;;;20.27;7.67;;;;;;;18.74;71.12;100925.33;1786909;78;25804;-60
2021/08/18 04:08:48;;;;;;;18.80;8.90;;;;;;;18.66;71.03;100924.05;1778556;78;25720;-60
2021/08/18 04:11:15;;;;;;;25.68;8.20;;;;;;;18.53;71.06;100923.83;1759266;80;27476;-60
2021/08/18 04:13:42;;;;;;;18.90;8.03;;;;;;;18.42;71.20;100920.52;1813590;79;25741;-61
2021/08/18 04:16:09;;;;;;;15.78;6.83;;;;;;;18.37;71.45;100924.32;1813689;79;25778;-62
2021/08/18 04:18:36;;;;;;;20.40;8.10;;;;;;;18.35;71.42;100922.29;1814071;79;25804;-62
2021/08/18 04:21:03;;;;;;;18.37;7.55;;;;;;;18.35;71.65;100920.92;1813752;79;25711;-61
2021/08/18 04:23:30;;;;;;;22.95;8.33;;;;;;;18.38;71.76;100915.63;1806000;78;27446;-61
2021/08/18 04:25:57;;;;;;;15.98;7.70;;;;;;;18.39;71.51;100920.91;1778076;80;25839;-62
2021/08/18 04:28:23;;;;;;;13.45;7.22;;;;;;;18.51;71.84;100934.09;1786903;79;25571;-62
2021/08/18 04:30:51;;;;;;;20.32;7.33;;;;;;;18.49;71.35;100930.16;1808130;78;25802;-61
2021/08/18 04:33:17;;;;;;;17.57;7.80;;;;;;;18.41;71.58;100925.66;1786998;79;25812;-61
2021/08/18 04:35:44;;;;;;;17.48;7.28;;;;;;;18.23;72.04;100942.31;1818945;78;26993;-61
2021/08/18 04:38:11;;;;;;;15.00;5.95;;;;;;;18.08;72.16;100937.33;1786679;79;25819;-61
2021/08/18 04:40:39;;;;;;;12.13;6.22;;;;;;;18.13;72.32;100934.41;1815826;78;25812;-61
2021/08/18 04:43:07;;;;;;;17.52;6.15;;;;;;;18.17;72.15;100930.80;1813597;79;26700;-61
2021/08/18 04:45:33;;;;;;;15.78;6.10;;;;;;;18.22;71.72;100922.91;1814276;78;25473;-61
2021/08/18 04:48:00;;;;;;;11.85;6.78;;;;;;;18.20;71.37;100943.19;1763212;78;28144;-61
2021/08/18 04:50:27;;;;;;;12.28;5.90;;;;;;;18.08;70.95;100940.89;1786141;80;25678;-61
2021/08/18 04:52:54;;;;;;;16.77;5.87;;;;;;;18.03;71.39;100939.23;1786606;80;25777;-61
2021/08/18 04:55:21;;;;;;;11.78;5.45;;;;;;;18.11;71.57;100951.42;1787038;80;26482;-62
2021/08/18 04:57:47;;;;;;;13.55;6.03;;;;;;;18.12;70.96;100962.65;1785601;80;25849;-62
2021/08/18 05:00:17;;;;;;;15.18;5.20;;;;;;;17.90;71.47;100966.16;1780880;80;27444;-62
2021/08/18 05:02:46;;;;;;;14.18;6.08;;;;;;;17.76;71.94;100959.11;1776471;80;25749;-61
2021/08/18 05:05:13;;;;;;;14.78;5.65;;;;;;;17.75;72.13;100971.55;1758300;81;25750;-62
2021/08/18 05:07:40;;;;;;;14.05;6.12;;;;;;;17.76;72.38;100974.58;1758230;81;26476;-62
2021/08/18 05:10:09;;;;;;;17.95;6.35;;;;;;;17.75;72.02;100965.58;1758214;81;25897;-62
2021/08/18 05:12:38;;;;;;;16.52;5.45;;;;;;;17.72;72.12;100976.81;1757837;81;27462;-62
2021/08/18 05:15:07;;;;;;;14.90;6.92;;;;;;;17.64;72.76;100991.81;1778299;80;26542;-61
2021/08/18 05:17:34;;;;;;;25.82;7.83;;;;;;;17.57;73.34;100998.47;1789323;80;25695;-60
2021/08/18 05:20:01;;;;;;;15.88;6.60;;;;;;;17.56;73.41;100994.58;1789830;80;25842;-60
2021/08/18 05:22:29;;;;;;;17.10;6.55;;;;;;;17.61;73.03;101001.19;1788924;80;26610;-60
2021/08/18 05:24:56;;;;;;;16.17;6.80;;;;;;;17.67;73.00;101005.91;1774494;80;27425;-61
2021/08/18 05:27:23;;;;;;;10.90;5.72;;;;;;;17.66;72.75;101014.26;1774167;80;25944;-61
2021/08/18 05:29:49;;;;;;;15.38;6.90;;;;;;;17.68;72.47;101010.86;1789755;80;25760;-61
2021/08/18 05:32:16;;;;;;;21.10;6.75;;;;;;;17.60;72.67;101010.89;1789551;80;25836;-61
2021/08/18 05:34:43;;;;;;;17.52;7.05;;;;;;;17.55;72.56;101002.39;1789957;80;25726;-61
2021/08/18 05:37:10;;;;;;;19.98;6.75;;;;;;;17.60;72.58;101006.28;1789607;80;27483;-61
2021/08/18 05:39:37;;;;;;;18.25;6.90;;;;;;;17.82;72.68;100999.20;1789602;80;26090;-60
2021/08/18 05:42:04;;;;;;;16.85;6.30;;;;;;;18.02;72.30;100989.78;1789499;80;25771;-61
2021/08/18 05:44:31;;;;;;;25.23;6.62;;;;;;;18.19;71.81;100987.78;1759141;79;25776;-61
2021/08/18 05:46:58;;;;;;;16.77;6.97;;;;;;;18.37;71.36;100985.60;1777400;80;25724;-60
2021/08/18 05:49:25;;;;;;;13.60;7.00;;;;;;;18.52;70.97;100992.46;1789819;80;28248;-61
2021/08/18 05:51:52;;;;;;;15.80;6.97;;;;;;;18.68;70.57;100975.63;1784070;80;26166;-60
2021/08/18 05:54:19;;;;;;;19.05;6.53;;;;;;;18.84;70.00;100964.56;1754850;81;26108;-61
2021/08/18 05:56:45;;;;;;;14.10;6.53;;;;;;;18.85;69.05;100964.06;1754939;81;26447;-61
2021/08/18 05:59:12;;;;;;;19.45;7.03;;;;;;;18.92;69.12;100960.91;1758291;80;26444;-61
2021/08/18 06:01:39;;;;;;;24.43;7.05;;;;;;;19.05;69.23;100958.39;1785371;80;27486;-62
2021/08/18 06:04:06;;;;;;;19.00;8.70;;;;;;;19.20;68.85;100960.30;1785220;79;25790;-61
2021/08/18 06:06:34;;;;;;;21.97;9.68;;;;;;;19.35;68.71;100964.38;1752587;81;26258;-62
2021/08/18 06:09:01;;;;;;;18.52;8.63;;;;;;;19.52;68.07;100962.27;1785442;80;26581;-61
2021/08/18 06:11:28;;;;;;;22.02;7.22;;;;;;;19.65;67.71;100965.67;1752684;81;25768;-61
2021/08/18 06:13:55;;;;;;;15.93;7.00;;;;;;;19.74;66.80;100960.97;1815640;78;27465;-62
2021/08/18 06:16:22;;;;;;;13.95;6.33;;;;;;;19.54;66.10;100967.03;1817563;78;25800;-62
2021/08/18 06:18:49;;;;;;;17.67;6.60;;;;;;;19.43;66.39;100968.37;1817552;78;25817;-62
2021/08/18 06:21:16;;;;;;;16.17;6.25;;;;;;;19.39;66.57;100963.81;1817053;78;25797;-62
2021/08/18 06:23:47;;;;;;;11.40;5.60;;;;;;;19.33;66.18;100960.98;1817630;78;25676;-61
2021/08/18 06:26:13;;;;;;;17.05;5.45;;;;;;;19.18;66.85;100948.72;1785611;79;27499;-61
2021/08/18 06:28:40;;;;;;;12.98;6.03;;;;;;;19.08;66.73;100963.48;1780493;80;26125;-61
2021/08/18 06:31:06;;;;;;;16.35;6.15;;;;;;;19.00;67.31;100964.11;1779564;80;25729;-62
2021/08/18 06:33:34;;;;;;;11.88;6.33;;;;;;;18.91;67.90;100964.67;1779235;80;25861;-62
2021/08/18 06:36:01;;;;;;;13.50;5.90;;;;;;;18.95;67.96;100960.58;1779653;80;26435;-61
2021/08/18 06:38:30;;;;;;;17.62;6.15;;;;;;;18.96;67.86;100956.80;1779292;80;27466;-61
2021/08/18 06:40:57;;;;;;;15.72;5.90;;;;;;;19.01;67.92;100957.09;1785662;80;25833;-62
2021/08/18 06:43:24;;;;;;;12.45;5.35;;;;;;;19.15;68.23;100946.36;1789599;80;26343;-62
2021/08/18 06:45:54;;;;;;;12.88;5.15;;;;;;;19.36;67.91;100938.27;1784941;80;25801;-63
2021/08/18 06:48:22;;;;;;;16.15;5.72;;;;;;;19.34;66.72;100946.32;1812827;78;25748;-61
2021/08/18 06:50:49;;;;;;;16.52;6.53;;;;;;;19.18;66.56;100940.04;1812855;78;27458;-61
2021/08/18 06:53:16;;;;;;;19.32;6.67;;;;;;;19.22;67.07;100945.96;1817523;78;25703;-61
2021/08/18 06:55:44;;;;;;;14.95;7.28;;;;;;;19.39;67.40;100942.49;1785345;80;25684;-61
2021/08/18 06:58:10;;;;;;;20.08;7.67;;;;;;;19.46;67.29;100937.12;1783045;78;25816;-67
2021/08/18 07:00:37;;;;;;;12.75;6.20;;;;;;;19.53;67.24;100936.69;1778038;80;25958;-61
2021/08/18 07:03:04;;;;;;;15.58;7.70;;;;;;;19.66;67.11;100935.48;1777777;79;28224;-61
2021/08/18 07:05:33;;;;;;;17.73;7.70;;;;;;;19.75;66.79;100938.09;1799324;78;25687;-62
2021/08/18 07:08:01;;;;;;;29.23;8.05;;;;;;;19.82;66.62;100930.82;1784847;78;25642;-61
2021/08/18 07:10:28;;;;;;;15.98;7.33;;;;;;;19.90;66.56;100940.81;1786332;80;25791;-61
2021/08/18 07:12:55;;;;;;;22.02;7.47;;;;;;;19.82;66.04;100949.39;1742512;81;25729;-61
2021/08/18 07:15:23;;;;;;;14.68;7.12;;;;;;;19.60;66.03;100953.97;1763059;81;27951;-60
2021/08/18 07:17:49;;;;;;;13.48;6.87;;;;;;;19.48;66.54;100948.70;1762889;81;25764;-61
2021/08/18 07:20:17;;;;;;;19.62;7.03;;;;;;;19.43;66.73;100940.22;1771993;79;25735;-60
2021/08/18 07:22:44;;;;;;;14.80;6.95;;;;;;;19.36;66.58;100938.80;1765635;79;25795;-60
2021/08/18 07:25:12;;;;;;;20.08;6.40;;;;;;;19.18;67.08;100941.91;1782061;80;25697;-59
2021/08/18 07:27:39;;;;;;;16.97;7.08;;;;;;;19.01;67.65;100938.02;1782534;79;28222;-61
2021/08/18 07:30:07;;;;;;;17.55;6.78;;;;;;;18.93;68.20;100939.47;1794221;79;25931;-59
2021/08/18 07:32:37;;;;;;;15.28;6.80;;;;;;;18.85;68.24;100939.00;1773831;79;25778;-60
2021/08/18 07:35:07;;;;;;;15.63;7.35;;;;;;;18.86;68.49;100943.42;1765941;79;26539;-61
2021/08/18 07:37:33;;;;;;;15.35;6.47;;;;;;;18.92;68.37;100946.78;1760174;79;25735;-60
2021/08/18 07:40:00;;;;;;;20.70;6.50;;;;;;;18.89;68.29;100953.09;1762595;79;27819;-61
2021/08/18 07:42:27;;;;;;;16.97;6.42;;;;;;;18.92;68.51;100951.38;1759636;80;25819;-59
2021/08/18 07:44:54;;;;;;;17.10;6.25;;;;;;;19.01;68.54;100954.87;1767023;79;25785;-60
2021/08/18 07:47:22;;;;;;;15.48;5.95;;;;;;;18.98;68.31;100955.27;1782146;79;25756;-59
2021/08/18 07:49:49;;;;;;;15.55;6.75;;;;;;;18.95;68.49;100962.45;1787572;79;25903;-59
2021/08/18 07:52:16;;;;;;;15.20;6.03;;;;;;;18.91;68.45;100960.58;1785739;79;27440;-60
2021/08/18 07:54:43;;;;;;;17.10;6.80;;;;;;;18.90;68.40;100962.97;1786943;80;25925;-60
2021/08/18 07:57:10;;;;;;;10.20;5.72;;;;;;;18.97;68.37;100969.39;1787660;80;25769;-60
2021/08/18 07:59:37;;;;;;;19.85;6.70;;;;;;;19.01;68.06;100976.68;1787370;80;25778;-60
2021/08/18 08:02:04;;;;;;;17.85;6.70;;;;;;;19.03;68.00;100982.80;1776680;79;25711;-59
2021/08/18 08:04:31;;;;;;;11.75;6.15;;;;;;;18.94;68.20;100983.42;1788181;79;28159;-59
2021/08/18 08:06:58;;;;;;;13.20;7.00;;;;;;;18.89;68.22;100981.72;1763542;79;25859;-61
2021/08/18 08:09:25;;;;;;;17.77;6.92;;;;;;;18.81;68.29;100981.80;1763155;81;25473;-61
2021/08/18 08:11:53;;;;;;;20.37;7.05;;;;;;;18.71;68.75;100981.55;1762867;81;25799;-59
2021/08/18 08:14:20;;;;;;;18.27;6.92;;;;;;;18.68;69.21;100989.25;1761150;81;25813;-60
2021/08/18 08:16:48;;;;;;;19.62;7.05;;;;;;;18.60;69.55;100999.20;1761090;81;27848;-59
2021/08/18 08:19:15;;;;;;;18.77;7.67;;;;;;;18.57;69.78;101002.28;1792313;80;26185;-59
2021/08/18 08:21:42;;;;;;;16.23;6.83;;;;;;;18.61;69.61;101004.12;1793572;80;25668;-60
2021/08/18 08:24:09;;;;;;;16.48;7.25;;;;;;;18.61;69.55;100995.95;1787392;80;25785;-60
2021/08/18 08:26:36;;;;;;;13.53;6.53;;;;;;;18.73;69.43;100991.76;1761314;81;25770;-61
2021/08/18 08:29:03;;;;;;;12.05;7.17;;;;;;;18.81;69.37;100988.12;1781152;79;28179;-60
2021/08/18 08:31:29;;;;;;;18.35;7.40;;;;;;;18.82;69.05;100995.27;1784934;79;26335;-60
2021/08/18 08:33:57;;;;;;;15.63;6.33;;;;;;;18.87;68.99;100993.35;1793186;80;25624;-62
2021/08/18 08:36:24;;;;;;;12.33;6.58;;;;;;;18.90;68.88;100994.31;1793990;80;25808;-61
2021/08/18 08:38:51;;;;;;;19.17;7.55;;;;;;;18.93;68.78;101001.64;1793394;80;25794;-61
2021/08/18 08:41:18;;;;;;;22.32;7.95;;;;;;;18.90;68.69;101002.00;1793933;80;28373;-61
2021/08/18 08:43:45;;;;;;;31.02;18.35;;;;;;;18.82;68.95;101003.45;1774249;80;25451;-64
2021/08/18 08:46:19;;;;;;;15.83;7.90;;;;;;;18.85;68.81;101003.05;1770741;80;25857;-64
2021/08/18 08:48:46;;;;;;;22.07;8.28;;;;;;;18.86;68.85;100999.30;1793547;80;25785;-61
2021/08/18 08:51:14;;;;;;;12.55;7.37;;;;;;;18.72;69.11;100992.78;1793742;80;25827;-61
2021/08/18 08:53:40;;;;;;;18.42;8.48;;;;;;;18.67;69.35;100997.95;1793422;80;27455;-61
2021/08/18 08:56:09;;;;;;;21.42;8.25;;;;;;;18.63;69.15;100996.62;1793978;80;25786;-61
2021/08/18 08:58:36;;;;;;;23.18;8.78;;;;;;;18.64;69.23;100996.95;1773240;80;25823;-61
2021/08/18 09:01:03;;;;;;;20.52;7.50;;;;;;;18.58;69.35;100994.97;1792048;80;25810;-61
2021/08/18 09:03:35;;;;;;;19.45;7.80;;;;;;;18.52;69.62;100995.19;1793528;80;25960;-61
2021/08/18 09:06:07;;;;;;;15.18;8.50;;;;;;;18.48;69.66;100998.46;1793490;80;27475;-60
2021/08/18 09:08:52;;;;;;;19.05;8.40;;;;;;;18.49;69.91;101002.35;1781103;80;25805;-60
2021/08/18 09:11:21;;;;;;;22.30;9.05;;;;;;;18.40;70.05;101003.45;1763309;80;25473;-61
2021/08/18 09:13:52;;;;;;;19.65;9.03;;;;;;;18.32;70.02;100998.06;1761072;81;25782;-60
2021/08/18 09:16:22;;;;;;;25.52;9.28;;;;;;;18.34;70.18;100995.48;1761490;81;26326;-60
2021/08/18 09:18:54;;;;;;;16.85;8.10;;;;;;;18.29;70.40;100993.84;1761098;81;26938;-60
2021/08/18 09:21:40;;;;;;;22.90;8.30;;;;;;;18.34;70.30;100990.04;1763467;80;25750;-60
2021/08/18 09:24:20;;;;;;;15.15;7.03;;;;;;;18.39;70.00;100986.27;1760981;81;25827;-62
2021/08/18 09:27:06;;;;;;;21.60;8.03;;;;;;;18.56;70.15;100994.30;1791745;80;25701;-61
2021/08/18 09:29:33;;;;;;;24.43;7.20;;;;;;;18.61;69.48;100985.05;1766793;80;25913;-60
2021/08/18 09:32:35;;;;;;;19.17;7.42;;;;;;;18.69;69.29;100979.52;1813725;78;27439;-61
2021/08/18 09:35:10;;;;;;;17.20;6.83;;;;;;;18.74;68.82;100980.33;1813531;79;25763;-60
2021/08/18 09:37:44;;;;;;;17.20;7.55;;;;;;;18.75;68.94;100978.80;1813716;78;25642;-61
2021/08/18 09:40:22;;;;;;;17.62;7.17;;;;;;;18.88;68.68;100985.47;1815566;78;26441;-60
2021/08/18 09:42:50;;;;;;;20.10;7.95;;;;;;;18.95;68.41;100990.56;1818930;78;25749;-61
2021/08/18 09:45:27;;;;;;;18.15;7.10;;;;;;;18.83;68.10;100985.20;1786396;80;28314;-61
2021/08/18 09:48:03;;;;;;;14.83;7.00;;;;;;;18.84;68.38;100982.81;1802638;78;25865;-61
2021/08/18 09:50:42;;;;;;;16.70;6.78;;;;;;;18.89;68.17;100986.67;1802739;78;25635;-60
2021/08/18 09:53:31;;;;;;;17.48;7.03;;;;;;;18.92;67.86;100986.81;1803679;78;25923;-60
2021/08/18 09:56:06;;;;;;;17.55;7.08;;;;;;;18.97;67.73;100983.02;1811165;78;26085;-60
2021/08/18 09:58:43;;;;;;;19.67;7.53;;;;;;;18.98;67.66;100983.36;1793986;78;27435;-61
2021/08/18 10:01:15;;;;;;;24.60;7.10;;;;;;;18.99;67.86;100981.50;1803569;78;25685;-60
2021/08/18 10:03:47;;;;;;;14.23;6.72;;;;;;;19.11;67.92;100988.16;1813187;78;25873;-60
2021/08/18 10:06:15;;;;;;;19.75;7.58;;;;;;;19.12;67.55;100982.20;1813573;79;26863;-60
2021/08/18 10:08:45;;;;;;;15.53;6.90;;;;;;;19.12;67.45;100980.31;1796932;78;25953;-60
2021/08/18 10:11:15;;;;;;;17.10;8.00;;;;;;;19.16;67.35;100982.14;1786721;80;27421;-61
2021/08/18 10:13:42;;;;;;;19.27;7.42;;;;;;;19.19;67.46;100973.06;1787580;80;25797;-60
2021/08/18 10:16:10;;;;;;;19.12;6.90;;;;;;;19.32;67.37;100975.13;1752347;80;25810;-60
2021/08/18 10:18:49;;;;;;;20.12;6.97;;;;;;;19.35;67.06;100976.13;1785986;80;25779;-60
2021/08/18 10:21:26;;;;;;;12.80;6.92;;;;;;;19.49;66.78;100971.69;1786379;80;26347;-60
2021/08/18 10:24:03;;;;;;;15.95;7.40;;;;;;;19.69;66.58;100970.56;1807718;78;27465;-60
2021/08/18 10:26:39;;;;;;;15.78;7.42;;;;;;;19.84;65.75;100973.80;1779114;80;25750;-60
2021/08/18 10:29:22;;;;;;;20.48;8.08;;;;;;;20.01;65.32;100978.00;1813772;78;26326;-61
2021/08/18 10:31:54;;;;;;;15.68;8.45;;;;;;;20.12;65.28;100964.88;1788705;80;26450;-61
2021/08/18 10:34:42;;;;;;;15.32;7.92;;;;;;;20.24;64.48;100966.03;1773206;80;25808;-61
2021/08/18 10:37:17;;;;;;;15.83;9.25;;;;;;;20.30;64.13;100968.00;1766547;81;27463;-61
2021/08/18 10:39:51;;;;;;;13.85;7.95;;;;;;;20.21;64.10;100972.41;1766673;81;25846;-61
2021/08/18 10:42:40;;;;;;;18.15;8.40;;;;;;;20.18;64.13;100961.36;1796760;79;25767;-60
2021/08/18 10:45:36;;;;;;;14.93;8.43;;;;;;;20.17;64.35;100963.23;1798689;79;25813;-60
2021/08/18 10:48:03;;;;;;;18.00;7.95;;;;;;;20.23;64.62;100955.31;1798341;79;27079;-61
2021/08/18 10:50:43;;;;;;;13.93;7.65;;;;;;;20.41;64.64;100958.42;1798791;79;27460;-61
2021/08/18 10:53:29;;;;;;;13.43;7.72;;;;;;;20.54;64.42;100959.55;1799223;79;25869;-61
2021/08/18 10:55:56;;;;;;;16.77;8.13;;;;;;;20.80;64.28;100963.06;1786282;79;25824;-60
2021/08/18 10:58:31;;;;;;;13.75;7.62;;;;;;;20.91;63.41;100960.28;1798968;79;25798;-61
2021/08/18 11:00:58;;;;;;;17.27;7.05;;;;;;;21.00;63.40;100959.62;1799458;79;25738;-61
2021/08/18 11:03:27;;;;;;;16.35;7.67;;;;;;;21.13;62.83;100955.58;1799064;79;27448;-61
2021/08/18 11:05:54;;;;;;;12.20;6.80;;;;;;;21.20;61.98;100948.78;1798682;79;25522;-61
2021/08/18 11:08:30;;;;;;;19.15;7.53;;;;;;;21.10;61.64;100954.09;1799021;79;25734;-62
2021/08/18 11:11:03;;;;;;;11.78;6.78;;;;;;;20.93;61.84;100956.83;1766888;79;25827;-60
2021/08/18 11:13:53;;;;;;;14.30;7.28;;;;;;;20.85;62.30;100955.09;1766823;81;25710;-61
2021/08/18 11:16:31;;;;;;;14.20;7.60;;;;;;;20.78;62.44;100948.23;1766904;81;27494;-60
2021/08/18 11:19:08;;;;;;;18.52;7.90;;;;;;;20.93;62.67;100943.16;1766476;81;25893;-60
2021/08/18 11:21:39;;;;;;;16.02;7.65;;;;;;;21.16;62.56;100932.47;1766857;81;25516;-61
2021/08/18 11:24:10;;;;;;;11.50;7.37;;;;;;;21.37;62.01;100932.88;1785998;79;25775;-61
2021/08/18 11:26:41;;;;;;;10.68;7.10;;;;;;;21.49;61.76;100927.66;1767116;81;25552;-62